Airfield :
LOGIN :

Register | Disclaimer

   EN    FR    IT 

 










Legend :    VFR   Marginal VFR   IFR   Intensive IFR   Very Intensive IFR
Visi :
Ceiling :
>= 8 km
>= 3000ft
5 to 8 km
1000 to 3000 ft
1500m to 5 km
500 to 1000 ft
800 to 1500m
200 to 500 ft
< 800m
< 200 ft
Symbols :   Thunderstorms  Fog  Heavy snow  Heavy precipitations  Wind > 20 kt
SIGMETs :     Misc.  Thunderstorms  Icing  Turbulence  Mountain Waves  Volcanic Ashes







- Airport Elevation : 230 ft


ETHB - Buckeburg Army

CURRENT METAR :
  • 180650Z VRB01KT 2200 R08/0900N BR BKN004 BKN007 11/11 Q1015 YLO GRN TEMPO RED

EXPIRED METARs :
  • 180620Z 07002KT 2200 R08/1000N BR BKN006 11/10 Q1015 YLO GRN TEMPO RED
  • 180557Z 08003KT 2200 R08/1200N BR BKN006 10/10 Q1015 YLO GRN TEMPO RED
  • 180537Z 03002KT 2000 BR BKN007 11/10 Q1015 YLO GRN TEMPO RED
  • 180520Z VRB01KT 3000 BR BKN007 11/11 Q1015 YLO GRN TEMPO RED
  • 180447Z 21004KT 4000 BR BKN005 11/11 Q1016 YLO GRN TEMPO RED
  • 180420Z 20002KT 4000 BR BKN008 11/10 Q1016 GRN GRN TEMPO RED

TAF TAF ETHB
Valid from the 18 at 05:00 until the 18 at 14:00 UTC


180423Z 1805/1814 VRB03KT 4000 BR BKN012
TEMPO 1805/1808 VRB02KT 0200 FG VV002
BECMG 1808/1810 15005KT 5000 BR SCT020
BECMG 1810/1812 16005KT 8000 NSW SCT030
No reported NOTAMs for that airfield.



MET'MAP, your aeronautical weather chart ! - Copyright ORBIFLY December 2007 - Disclaimer

ORBIFLY MET'MAP TEAM :

Programming & Development : Alexandra Zaïnal
Concept & Development : Baudouin d'Aumeries
Co-Development & Prog : Marc-Olivier Méhu
Technical & hardware support : Manuel Goepfert

Contact : metmap@orbifly.com




SOURCES & CREDITS :

   NOAA